createdAt,value
2023-12-03T00:04:15.102Z,-1.93
2023-12-03T00:14:18.612Z,-1.96
2023-12-03T00:24:22.729Z,-1.99
2023-12-03T00:34:26.015Z,-2.00
2023-12-03T00:44:29.869Z,-1.99
2023-12-03T00:54:33.380Z,-2.00
2023-12-03T01:04:36.716Z,-2.05
2023-12-03T01:14:40.236Z,-2.00
2023-12-03T01:24:43.424Z,-1.90
2023-12-03T01:34:46.554Z,-1.87
2023-12-03T01:44:49.715Z,-1.90
2023-12-03T01:54:53.081Z,-1.99
2023-12-03T02:04:56.514Z,-2.02
2023-12-03T02:14:59.949Z,-2.05
2023-12-03T02:25:03.404Z,-2.10
2023-12-03T02:35:07.235Z,-2.15
2023-12-03T02:45:11.522Z,-2.11
2023-12-03T02:55:15.264Z,-2.10
2023-12-03T03:05:18.431Z,-2.13
2023-12-03T03:15:21.860Z,-2.18
2023-12-03T03:25:25.503Z,-2.19
2023-12-03T03:35:28.842Z,-2.23
2023-12-03T03:45:32.105Z,-2.22
2023-12-03T03:55:35.529Z,-2.22
2023-12-03T04:05:38.870Z,-2.19
2023-12-03T04:15:42.172Z,-2.16
2023-12-03T04:25:45.350Z,-2.24
2023-12-03T04:35:48.416Z,-2.33
2023-12-03T04:45:51.877Z,-2.38
2023-12-03T04:55:55.202Z,-2.49
2023-12-03T05:05:58.410Z,-2.57
2023-12-03T05:16:03.704Z,-2.59
2023-12-03T05:26:07.862Z,-2.58
2023-12-03T05:36:21.924Z,-2.60
2023-12-03T05:46:25.200Z,-2.57
2023-12-03T05:56:29.671Z,-2.58
2023-12-03T06:06:33.282Z,-2.66
2023-12-03T06:16:36.770Z,-2.64
2023-12-03T06:26:40.003Z,-2.75
2023-12-03T06:36:43.271Z,-2.77
2023-12-03T06:46:46.589Z,-2.78
2023-12-03T06:56:50.067Z,-2.89
2023-12-03T07:06:53.669Z,-2.92
2023-12-03T07:16:57.469Z,-2.88
2023-12-03T07:27:00.774Z,-2.86
2023-12-03T07:37:04.633Z,-2.73
2023-12-03T07:47:07.972Z,-2.57
2023-12-03T07:57:11.324Z,-2.46
2023-12-03T08:07:15.120Z,-2.41
2023-12-03T08:17:18.338Z,-2.33
2023-12-03T08:27:23.065Z,-2.15
2023-12-03T08:37:27.605Z,-2.02
2023-12-03T08:47:32.688Z,-1.89
2023-12-03T08:57:38.948Z,-1.72
2023-12-03T09:07:44.242Z,-1.56
2023-12-03T09:17:49.138Z,-1.43
2023-12-03T09:27:53.372Z,-1.25
2023-12-03T09:37:57.595Z,-0.96
2023-12-03T09:48:03.511Z,-0.66
2023-12-03T09:58:13.381Z,-0.48
2023-12-03T10:08:20.075Z,-0.21
2023-12-03T10:18:26.130Z,-0.02
2023-12-03T10:28:32.475Z,0.06
2023-12-03T10:38:45.885Z,0.06
2023-12-03T10:48:54.286Z,-0.15
2023-12-03T10:59:10.897Z,-0.16
2023-12-03T11:09:19.654Z,-0.22
2023-12-03T11:19:28.349Z,-0.29
2023-12-03T11:29:53.294Z,-0.28
2023-12-03T11:40:17.720Z,-0.30
2023-12-03T11:50:24.399Z,-0.29
2023-12-03T12:00:33.846Z,-0.41
2023-12-03T12:10:40.453Z,-0.46
2023-12-03T12:20:47.234Z,-0.32
2023-12-03T12:30:52.710Z,-0.20
2023-12-03T12:41:03.137Z,-0.22
2023-12-03T12:51:07.574Z,-0.16
2023-12-03T13:01:13.324Z,-0.32
2023-12-03T13:11:21.466Z,-0.47
2023-12-03T13:21:27.516Z,-0.72
2023-12-03T13:31:33.830Z,-0.98
2023-12-03T13:41:40.345Z,-1.02
2023-12-03T13:51:46.688Z,-1.13
2023-12-03T14:01:53.135Z,-1.29
2023-12-03T14:11:59.914Z,-1.40
2023-12-03T14:22:05.546Z,-1.54
2023-12-03T14:32:11.556Z,-1.76
2023-12-03T14:42:17.425Z,-1.92
2023-12-03T14:52:23.718Z,-2.01
2023-12-03T15:02:29.796Z,-2.13
2023-12-03T15:12:37.587Z,-2.24
2023-12-03T15:22:42.011Z,-2.33
2023-12-03T15:32:47.184Z,-2.38
2023-12-03T15:42:55.866Z,-2.40
2023-12-03T15:53:00.446Z,-2.44
2023-12-03T16:03:07.277Z,-2.47
2023-12-03T16:13:14.382Z,-2.43
2023-12-03T16:23:19.436Z,-2.40
2023-12-03T16:33:27.031Z,-2.54
2023-12-03T16:43:38.504Z,-2.61
2023-12-03T16:53:42.607Z,-2.64
2023-12-03T17:03:46.419Z,-2.67
2023-12-03T17:13:49.839Z,-2.73
2023-12-03T17:23:53.585Z,-2.69
2023-12-03T17:33:57.770Z,-2.70
2023-12-03T17:44:01.165Z,-2.72
2023-12-03T17:54:07.814Z,-2.61
2023-12-03T18:04:11.306Z,-2.51
2023-12-03T18:14:14.773Z,-2.51
2023-12-03T18:24:21.297Z,-2.65
2023-12-03T18:34:25.592Z,-2.63
2023-12-03T18:44:30.262Z,-2.57
2023-12-03T18:54:36.037Z,-2.60
2023-12-03T19:04:39.549Z,-2.71
2023-12-03T19:14:43.751Z,-2.76
2023-12-03T19:24:48.173Z,-2.66
2023-12-03T19:34:53.337Z,-2.79
2023-12-03T19:44:57.566Z,-2.85
2023-12-03T19:55:01.145Z,-2.90
2023-12-03T20:05:08.072Z,-2.79
2023-12-03T20:15:20.862Z,-2.76
2023-12-03T20:25:28.645Z,-2.92
2023-12-03T20:35:32.224Z,-3.00
2023-12-03T20:45:36.661Z,-3.16
2023-12-03T20:55:40.107Z,-3.67
2023-12-03T21:05:49.103Z,-4.35
2023-12-03T21:15:55.145Z,-4.97
2023-12-03T21:25:58.332Z,-5.62
2023-12-03T21:36:01.716Z,-6.28
2023-12-03T21:46:05.569Z,-6.98
2023-12-03T21:56:09.103Z,-7.57
2023-12-03T22:06:12.524Z,-7.65
2023-12-03T22:16:15.880Z,-7.70
2023-12-03T22:26:19.140Z,-7.66
2023-12-03T22:36:22.337Z,-7.44
2023-12-03T22:46:25.635Z,-7.34
2023-12-03T22:56:28.945Z,-7.27
2023-12-03T23:06:32.198Z,-7.16
2023-12-03T23:16:45.039Z,-7.27
2023-12-03T23:26:48.579Z,-7.49
2023-12-03T23:36:52.197Z,-7.60
2023-12-03T23:46:55.615Z,-7.79
2023-12-03T23:56:58.917Z,-8.17
